createdAt,value
2017-06-23T00:00:35.983Z,0
2017-06-23T00:01:44.874Z,0
2017-06-23T00:02:53.761Z,0
2017-06-23T00:04:02.654Z,0
2017-06-23T00:05:11.871Z,0
2017-06-23T00:06:20.763Z,0
2017-06-23T00:07:30.301Z,0
2017-06-23T00:08:39.188Z,0
2017-06-23T00:09:48.403Z,0
2017-06-23T00:10:57.645Z,0
2017-06-23T00:12:06.694Z,0
2017-06-23T00:13:15.933Z,0
2017-06-23T00:14:25.144Z,0
2017-06-23T00:15:34.353Z,0
2017-06-23T00:16:43.247Z,0
2017-06-23T00:17:52.137Z,0
2017-06-23T00:19:01.077Z,0
2017-06-23T00:20:10.294Z,0
2017-06-23T00:21:19.196Z,0
2017-06-23T00:22:28.090Z,0
2017-06-23T00:23:37.135Z,0
2017-06-23T00:24:46.022Z,0
2017-06-23T00:25:54.912Z,0
2017-06-23T00:27:04.127Z,0
2017-06-23T00:28:13.680Z,0
2017-06-23T00:29:22.720Z,0
2017-06-23T00:30:31.935Z,0
2017-06-23T00:31:41.149Z,0
2017-06-23T00:32:50.038Z,0
2017-06-23T00:33:58.928Z,0
2017-06-23T00:35:08.296Z,0
2017-06-23T00:36:17.187Z,0
2017-06-23T00:37:26.399Z,0
2017-06-23T00:38:35.286Z,0
2017-06-23T00:39:44.496Z,0
2017-06-23T00:40:53.533Z,0
2017-06-23T00:42:03.075Z,0
2017-06-23T00:43:11.993Z,0
2017-06-23T00:44:20.886Z,0
2017-06-23T00:45:30.105Z,0
2017-06-23T00:46:39.145Z,0
2017-06-23T00:47:48.041Z,0
2017-06-23T00:48:56.929Z,0
2017-06-23T00:50:06.467Z,0
2017-06-23T00:51:15.358Z,0
2017-06-23T00:52:24.297Z,0
2017-06-23T00:53:33.189Z,0
2017-06-23T00:54:42.081Z,0
2017-06-23T00:55:50.972Z,0
2017-06-23T00:56:59.865Z,0
2017-06-23T00:58:09.075Z,0
2017-06-23T00:59:17.967Z,0
2017-06-23T01:00:27.183Z,0
2017-06-23T01:01:36.395Z,0
2017-06-23T01:02:45.606Z,0
2017-06-23T01:03:54.645Z,0
2017-06-23T01:05:03.864Z,0
2017-06-23T01:06:12.756Z,0
2017-06-23T01:07:21.646Z,0
2017-06-23T01:08:30.538Z,0
2017-06-23T01:09:39.805Z,0
2017-06-23T01:10:49.020Z,0
2017-06-23T01:11:57.912Z,0
2017-06-23T01:13:07.128Z,0
2017-06-23T01:14:16.341Z,0
2017-06-23T01:15:25.279Z,0
2017-06-23T01:16:34.172Z,0
2017-06-23T01:17:44.035Z,0
2017-06-23T01:18:53.254Z,0
2017-06-23T01:20:02.146Z,0
2017-06-23T01:21:11.140Z,0
2017-06-23T01:22:20.682Z,0
2017-06-23T01:23:29.897Z,0
2017-06-23T01:24:38.786Z,0
2017-06-23T01:25:47.673Z,0
2017-06-23T01:26:56.940Z,0
2017-06-23T01:28:06.161Z,0
2017-06-23T01:29:15.707Z,0
2017-06-23T01:30:24.919Z,0
2017-06-23T01:31:33.816Z,0
2017-06-23T01:32:42.852Z,0
2017-06-23T01:33:52.066Z,0
2017-06-23T01:35:01.277Z,0
2017-06-23T01:36:10.167Z,0
2017-06-23T01:37:19.056Z,0
2017-06-23T01:38:27.945Z,0
2017-06-23T01:39:37.164Z,0
2017-06-23T01:40:46.061Z,0
2017-06-23T01:41:54.948Z,0
2017-06-23T01:43:04.162Z,0
2017-06-23T01:44:13.677Z,0
2017-06-23T01:45:22.899Z,0
2017-06-23T01:46:31.791Z,0
2017-06-23T01:47:40.681Z,0
2017-06-23T01:48:49.570Z,0
2017-06-23T01:49:58.560Z,0
2017-06-23T01:51:07.467Z,0
2017-06-23T01:52:16.684Z,0
2017-06-23T01:53:26.224Z,0
2017-06-23T01:54:35.440Z,0
2017-06-23T01:55:44.753Z,0
2017-06-23T01:56:53.641Z,0
2017-06-23T01:58:02.852Z,0
2017-06-23T01:59:12.394Z,0
2017-06-23T02:00:21.286Z,0
2017-06-23T02:01:30.331Z,0
2017-06-23T02:02:39.550Z,0
2017-06-23T02:03:49.114Z,0
2017-06-23T02:04:58.333Z,0
2017-06-23T02:06:07.553Z,0
2017-06-23T02:07:16.439Z,0
2017-06-23T02:08:25.649Z,0
2017-06-23T02:09:34.541Z,0
2017-06-23T02:10:44.407Z,0
2017-06-23T02:11:53.300Z,0
2017-06-23T02:13:02.245Z,0
2017-06-23T02:14:11.134Z,0
2017-06-23T02:15:20.347Z,0
2017-06-23T02:16:29.240Z,0
2017-06-23T02:17:38.130Z,0
2017-06-23T02:18:47.669Z,0
2017-06-23T02:19:56.559Z,0
2017-06-23T02:21:05.773Z,0
2017-06-23T02:22:14.990Z,0
2017-06-23T02:23:24.209Z,0
2017-06-23T02:24:33.097Z,0
2017-06-23T02:25:42.638Z,0
2017-06-23T02:26:52.177Z,0
2017-06-23T02:28:01.068Z,0
2017-06-23T02:29:09.955Z,4
2017-06-23T02:30:18.897Z,4
2017-06-23T02:31:28.116Z,0
2017-06-23T02:32:37.986Z,4
2017-06-23T02:33:46.879Z,8
2017-06-23T02:34:55.767Z,8
2017-06-23T02:36:05.310Z,8
2017-06-23T02:37:14.206Z,8
2017-06-23T02:38:23.096Z,8
2017-06-23T02:39:31.988Z,12
2017-06-23T02:40:40.884Z,12
2017-06-23T02:41:50.253Z,16
2017-06-23T02:42:59.481Z,16
2017-06-23T02:44:08.374Z,16
2017-06-23T02:45:17.269Z,20
2017-06-23T02:46:26.166Z,20
2017-06-23T02:47:35.209Z,16
2017-06-23T02:48:44.105Z,16
2017-06-23T02:49:53.321Z,16
2017-06-23T02:51:02.537Z,16
2017-06-23T02:52:11.752Z,16
2017-06-23T02:53:21.046Z,20
2017-06-23T02:54:29.941Z,24
2017-06-23T02:55:38.829Z,28
2017-06-23T02:56:47.720Z,24
2017-06-23T02:57:56.936Z,24
2017-06-23T02:59:06.127Z,32
2017-06-23T03:00:15.022Z,44
2017-06-23T03:01:24.562Z,48
2017-06-23T03:02:33.452Z,56
2017-06-23T03:03:42.347Z,56
2017-06-23T03:04:51.392Z,44
2017-06-23T03:06:00.286Z,36
2017-06-23T03:07:09.528Z,68
2017-06-23T03:08:18.422Z,88
2017-06-23T03:09:27.313Z,92
2017-06-23T03:10:36.419Z,68
2017-06-23T03:11:45.631Z,64
2017-06-23T03:12:54.521Z,84
2017-06-23T03:14:04.062Z,112
2017-06-23T03:15:13.277Z,128
2017-06-23T03:16:22.319Z,152
2017-06-23T03:17:31.207Z,176
2017-06-23T03:18:40.097Z,196
2017-06-23T03:19:48.987Z,188
2017-06-23T03:20:57.877Z,188
2017-06-23T03:22:06.929Z,184
2017-06-23T03:23:16.149Z,208
2017-06-23T03:24:25.047Z,200
2017-06-23T03:25:34.589Z,184
2017-06-23T03:26:43.803Z,188
2017-06-23T03:27:52.799Z,204
2017-06-23T03:29:01.686Z,248
2017-06-23T03:30:10.902Z,252
2017-06-23T03:31:19.793Z,308
2017-06-23T03:32:28.684Z,260
2017-06-23T03:33:37.735Z,292
2017-06-23T03:34:46.626Z,236
2017-06-23T03:35:55.517Z,296
2017-06-23T03:37:04.459Z,296
2017-06-23T03:38:14.000Z,356
2017-06-23T03:39:23.312Z,360
2017-06-23T03:40:32.202Z,404
2017-06-23T03:41:41.092Z,420
2017-06-23T03:42:49.990Z,432
2017-06-23T03:43:58.880Z,484
2017-06-23T03:45:08.258Z,488
2017-06-23T03:46:17.155Z,496
2017-06-23T03:47:26.372Z,492
2017-06-23T03:48:35.269Z,500
2017-06-23T03:49:44.161Z,548
2017-06-23T03:50:53.354Z,496
2017-06-23T03:52:02.246Z,512
2017-06-23T03:53:11.144Z,532
2017-06-23T03:54:20.031Z,552
2017-06-23T03:55:28.922Z,592
2017-06-23T03:56:38.627Z,628
2017-06-23T03:57:47.841Z,580
2017-06-23T03:58:57.058Z,600
2017-06-23T04:00:06.271Z,608
2017-06-23T04:01:15.813Z,612
2017-06-23T04:02:24.859Z,672
2017-06-23T04:03:33.747Z,692
2017-06-23T04:04:42.640Z,756
2017-06-23T04:05:51.528Z,680
2017-06-23T04:07:00.741Z,720
2017-06-23T04:08:09.731Z,712
2017-06-23T04:09:18.623Z,712
2017-06-23T04:10:28.163Z,632
2017-06-23T04:11:37.056Z,620
2017-06-23T04:12:46.294Z,588
2017-06-23T04:13:55.664Z,548
2017-06-23T04:15:04.559Z,612
2017-06-23T04:16:13.455Z,644
2017-06-23T04:17:22.671Z,680
2017-06-23T04:18:31.562Z,676
2017-06-23T04:19:40.455Z,736
2017-06-23T04:20:49.670Z,616
2017-06-23T04:21:58.884Z,624
2017-06-23T04:23:08.104Z,616
2017-06-23T04:24:17.326Z,528
2017-06-23T04:25:26.372Z,448
2017-06-23T04:26:35.586Z,464
2017-06-23T04:27:44.478Z,412
2017-06-23T04:28:53.378Z,372
2017-06-23T04:30:02.274Z,424
2017-06-23T04:31:11.641Z,364
2017-06-23T04:32:20.532Z,480
2017-06-23T04:33:29.752Z,420
2017-06-23T04:34:38.968Z,472
2017-06-23T04:35:47.861Z,372
2017-06-23T04:36:57.378Z,436
2017-06-23T04:38:06.273Z,348
2017-06-23T04:39:15.166Z,384
2017-06-23T04:40:24.381Z,548
2017-06-23T04:41:33.274Z,604
2017-06-23T04:42:42.169Z,588
2017-06-23T04:43:51.058Z,508
2017-06-23T04:44:59.948Z,704
2017-06-23T04:46:08.841Z,548
2017-06-23T04:47:17.727Z,580
2017-06-23T04:48:26.631Z,664
2017-06-23T04:49:35.848Z,580
2017-06-23T04:50:45.065Z,668
2017-06-23T04:51:54.285Z,596
2017-06-23T04:53:03.186Z,748
2017-06-23T04:54:12.777Z,624
2017-06-23T04:55:21.665Z,528
2017-06-23T04:56:30.559Z,556
2017-06-23T04:57:39.451Z,656
2017-06-23T04:58:48.337Z,732
2017-06-23T04:59:57.751Z,584
2017-06-23T05:01:06.643Z,724
2017-06-23T05:02:15.856Z,864
2017-06-23T05:03:24.749Z,696
2017-06-23T05:04:33.640Z,768
2017-06-23T05:05:42.633Z,608
2017-06-23T05:06:51.851Z,752
2017-06-23T05:08:01.076Z,756
2017-06-23T05:09:09.998Z,844
2017-06-23T05:10:18.898Z,716
2017-06-23T05:11:27.847Z,540
2017-06-23T05:12:36.746Z,768
2017-06-23T05:13:45.962Z,1040
2017-06-23T05:14:54.861Z,976
2017-06-23T05:16:03.761Z,832
2017-06-23T05:17:12.983Z,532
2017-06-23T05:18:22.208Z,800
2017-06-23T05:19:31.100Z,752
2017-06-23T05:20:40.314Z,924
2017-06-23T05:21:49.211Z,1032
2017-06-23T05:22:58.406Z,1024
2017-06-23T05:24:07.623Z,732
2017-06-23T05:25:16.524Z,824
2017-06-23T05:26:25.417Z,516
2017-06-23T05:27:34.310Z,576
2017-06-23T05:28:43.305Z,624
2017-06-23T05:29:52.198Z,648
2017-06-23T05:31:01.451Z,760
2017-06-23T05:32:10.991Z,852
2017-06-23T05:33:19.885Z,796
2017-06-23T05:34:29.024Z,1132
2017-06-23T05:35:37.918Z,1264
2017-06-23T05:36:46.807Z,800
2017-06-23T05:37:55.695Z,716
2017-06-23T05:39:04.587Z,652
2017-06-23T05:40:13.629Z,704
2017-06-23T05:41:22.518Z,768
2017-06-23T05:42:31.732Z,712
2017-06-23T05:43:40.619Z,744
2017-06-23T05:44:49.508Z,704
2017-06-23T05:45:58.547Z,768
2017-06-23T05:47:07.763Z,784
2017-06-23T05:48:16.652Z,860
2017-06-23T05:49:25.547Z,1048
2017-06-23T05:50:34.441Z,952
2017-06-23T05:51:43.585Z,1120
2017-06-23T05:52:52.477Z,1000
2017-06-23T05:54:01.370Z,968
2017-06-23T05:55:10.584Z,896
2017-06-23T05:56:19.797Z,1180
2017-06-23T05:57:29.166Z,980
2017-06-23T05:58:38.060Z,1072
2017-06-23T05:59:46.953Z,1040
2017-06-23T06:00:55.843Z,1228
2017-06-23T06:02:04.735Z,860
2017-06-23T06:03:13.886Z,1092
2017-06-23T06:04:23.430Z,880
2017-06-23T06:05:32.322Z,940
2017-06-23T06:06:42.187Z,1040
2017-06-23T06:07:51.130Z,668
2017-06-23T06:09:00.327Z,740
2017-06-23T06:10:09.544Z,860
2017-06-23T06:11:18.468Z,772
2017-06-23T06:12:28.011Z,760
2017-06-23T06:13:37.553Z,836
2017-06-23T06:14:46.771Z,1228
2017-06-23T06:15:55.661Z,676
2017-06-23T06:17:04.563Z,780
2017-06-23T06:18:13.454Z,672
2017-06-23T06:19:22.668Z,764
2017-06-23T06:20:31.711Z,924
2017-06-23T06:21:40.604Z,780
2017-06-23T06:22:49.496Z,696
2017-06-23T06:23:58.388Z,1124
2017-06-23T06:25:07.287Z,1212
2017-06-23T06:26:16.182Z,980
2017-06-23T06:27:25.072Z,1348
2017-06-23T06:28:33.966Z,1040
2017-06-23T06:29:43.186Z,1096
2017-06-23T06:30:52.404Z,1264
2017-06-23T06:32:01.404Z,1172
2017-06-23T06:33:11.269Z,1196
2017-06-23T06:34:20.162Z,1288
2017-06-23T06:35:29.053Z,1472
2017-06-23T06:36:37.951Z,1860
2017-06-23T06:37:47.001Z,2736
2017-06-23T06:38:56.218Z,3240
2017-06-23T06:40:05.758Z,3920
2017-06-23T06:41:14.646Z,3756
2017-06-23T06:42:23.539Z,4016
2017-06-23T06:43:32.434Z,3816
2017-06-23T06:44:41.329Z,3804
2017-06-23T06:45:50.551Z,3884
2017-06-23T06:46:59.445Z,3576
2017-06-23T06:48:09.312Z,3892
2017-06-23T06:49:18.632Z,4228
2017-06-23T06:50:27.865Z,4000
2017-06-23T06:51:36.757Z,4380
2017-06-23T06:52:45.645Z,4608
2017-06-23T06:53:54.534Z,4252
2017-06-23T06:55:03.828Z,4308
2017-06-23T06:56:12.720Z,4116
2017-06-23T06:57:21.938Z,4092
2017-06-23T06:58:30.828Z,4268
2017-06-23T06:59:40.046Z,4336
2017-06-23T07:00:49.568Z,4228
2017-06-23T07:01:58.459Z,4508
2017-06-23T07:03:07.356Z,3872
2017-06-23T07:04:16.249Z,3924
2017-06-23T07:05:25.466Z,3248
2017-06-23T07:06:34.830Z,2908
2017-06-23T07:07:43.723Z,3068
2017-06-23T07:08:52.620Z,4824
2017-06-23T07:10:01.514Z,3936
2017-06-23T07:11:10.732Z,3180
2017-06-23T07:12:19.778Z,2984
2017-06-23T07:13:28.998Z,2828
2017-06-23T07:14:37.888Z,2808
2017-06-23T07:15:47.107Z,2700
2017-06-23T07:16:56.003Z,2812
2017-06-23T07:18:05.467Z,3824
2017-06-23T07:19:14.678Z,3908
2017-06-23T07:20:23.894Z,3648
2017-06-23T07:21:32.786Z,2964
2017-06-23T07:22:41.676Z,2360
2017-06-23T07:23:50.670Z,1584
2017-06-23T07:24:59.559Z,1540
2017-06-23T07:26:09.135Z,2056
2017-06-23T07:27:18.357Z,1520
2017-06-23T07:28:27.250Z,1568
2017-06-23T07:29:36.242Z,1656
2017-06-23T07:30:45.132Z,1796
2017-06-23T07:31:54.022Z,1920
2017-06-23T07:33:02.914Z,2264
2017-06-23T07:34:12.130Z,2824
2017-06-23T07:35:21.493Z,3344
2017-06-23T07:36:30.709Z,3132
2017-06-23T07:37:39.599Z,3236
2017-06-23T07:38:48.495Z,3240
2017-06-23T07:39:57.394Z,3204
2017-06-23T07:41:06.488Z,3960
2017-06-23T07:42:15.379Z,4252
2017-06-23T07:43:24.285Z,3940
2017-06-23T07:44:33.187Z,3312
2017-06-23T07:45:42.085Z,3868
2017-06-23T07:46:51.456Z,5240
2017-06-23T07:48:00.678Z,4744
2017-06-23T07:49:09.893Z,5908
2017-06-23T07:50:18.785Z,7304
2017-06-23T07:51:27.680Z,5808
2017-06-23T07:52:36.950Z,6588
2017-06-23T07:53:46.167Z,7108
2017-06-23T07:54:55.058Z,5484
2017-06-23T07:56:03.949Z,4408
2017-06-23T07:57:12.841Z,6148
2017-06-23T07:58:22.087Z,4724
2017-06-23T07:59:30.984Z,4704
2017-06-23T08:00:39.884Z,4028
2017-06-23T08:01:48.788Z,4892
2017-06-23T08:02:57.688Z,4680
2017-06-23T08:04:06.682Z,4264
2017-06-23T08:05:15.577Z,3720
2017-06-23T08:06:24.475Z,4660
2017-06-23T08:07:34.093Z,4120
2017-06-23T08:08:43.046Z,3228
2017-06-23T08:09:51.990Z,3836
2017-06-23T08:11:00.885Z,4668
2017-06-23T08:12:09.788Z,6336
2017-06-23T08:13:18.701Z,6204
2017-06-23T08:14:27.617Z,5876
2017-06-23T08:15:36.951Z,5792
2017-06-23T08:16:46.174Z,3900
2017-06-23T08:17:55.394Z,3924
2017-06-23T08:19:04.289Z,3664
2017-06-23T08:20:13.186Z,4076
2017-06-23T08:21:22.081Z,4536
2017-06-23T08:22:31.300Z,5624
2017-06-23T08:23:40.195Z,6860
2017-06-23T08:24:49.091Z,4784
2017-06-23T08:25:57.985Z,3776
2017-06-23T08:27:06.981Z,4056
2017-06-23T08:28:16.202Z,5024
2017-06-23T08:29:25.098Z,5500
2017-06-23T08:30:33.992Z,5012
2017-06-23T08:31:43.217Z,4840
2017-06-23T08:32:52.262Z,5296
2017-06-23T08:34:01.161Z,5464
2017-06-23T08:35:10.059Z,5024
2017-06-23T08:36:19.603Z,4504
2017-06-23T08:37:28.497Z,3828
2017-06-23T08:38:37.441Z,3716
2017-06-23T08:39:46.336Z,4344
2017-06-23T08:40:55.230Z,4848
2017-06-23T08:42:04.454Z,4936
2017-06-23T08:43:13.679Z,6116
2017-06-23T08:44:22.580Z,7372
2017-06-23T08:45:31.488Z,7656
2017-06-23T08:46:40.404Z,8080
2017-06-23T08:47:49.628Z,7488
2017-06-23T08:48:58.852Z,7444
2017-06-23T08:50:08.121Z,7308
2017-06-23T08:51:17.341Z,6884
2017-06-23T08:52:26.233Z,7708
2017-06-23T08:53:35.126Z,7600
2017-06-23T08:54:44.022Z,7500
2017-06-23T08:55:53.292Z,7188
2017-06-23T08:57:02.839Z,6392
2017-06-23T08:58:12.064Z,4996
2017-06-23T08:59:20.963Z,5776
2017-06-23T09:00:29.869Z,5680
2017-06-23T09:01:39.017Z,6980
2017-06-23T09:02:48.559Z,6260
2017-06-23T09:03:57.456Z,5956
2017-06-23T09:05:07.336Z,5636
2017-06-23T09:06:16.562Z,5776
2017-06-23T09:07:25.610Z,6292
2017-06-23T09:08:34.507Z,6044
2017-06-23T09:09:43.725Z,5772
2017-06-23T09:10:52.637Z,6636
2017-06-23T09:12:01.543Z,7344
2017-06-23T09:13:10.876Z,6452
2017-06-23T09:14:19.769Z,5672
2017-06-23T09:15:28.986Z,6000
2017-06-23T09:16:37.883Z,4812
2017-06-23T09:17:46.777Z,4048
2017-06-23T09:18:56.149Z,5976
2017-06-23T09:20:05.045Z,7356
2017-06-23T09:21:14.261Z,7140
2017-06-23T09:22:23.158Z,7408
2017-06-23T09:23:32.708Z,8472
2017-06-23T09:24:41.860Z,8780
2017-06-23T09:25:51.082Z,9216
2017-06-23T09:26:59.974Z,9548
2017-06-23T09:28:09.517Z,8772
2017-06-23T09:29:18.413Z,5180
2017-06-23T09:30:27.366Z,5372
2017-06-23T09:31:36.584Z,4632
2017-06-23T09:32:45.808Z,4140
2017-06-23T09:33:54.708Z,6908
2017-06-23T09:35:03.938Z,9792
2017-06-23T09:36:12.842Z,8988
2017-06-23T09:37:21.743Z,7388
2017-06-23T09:38:30.638Z,6184
2017-06-23T09:39:39.558Z,5756
2017-06-23T09:40:48.458Z,6284
2017-06-23T09:41:57.405Z,6496
2017-06-23T09:43:06.323Z,5836
2017-06-23T09:44:15.568Z,5604
2017-06-23T09:45:24.482Z,6496
2017-06-23T09:46:33.384Z,6868
2017-06-23T09:47:42.377Z,7020
2017-06-23T09:48:51.272Z,7904
2017-06-23T09:50:00.165Z,7800
2017-06-23T09:51:09.386Z,6500
2017-06-23T09:52:18.286Z,5932
2017-06-23T09:53:27.477Z,6632
2017-06-23T09:54:36.368Z,6204
2017-06-23T09:55:45.271Z,6172
2017-06-23T09:56:54.167Z,7604
2017-06-23T09:58:03.385Z,7188
2017-06-23T09:59:12.580Z,6764
2017-06-23T10:00:22.126Z,7768
2017-06-23T10:01:31.019Z,6856
2017-06-23T10:02:40.239Z,5684
2017-06-23T10:03:49.134Z,7300
2017-06-23T10:04:58.080Z,5516
2017-06-23T10:06:06.984Z,5516
2017-06-23T10:07:16.216Z,6480
2017-06-23T10:08:25.111Z,8356
2017-06-23T10:09:34.000Z,8640
2017-06-23T10:10:43.196Z,8368
2017-06-23T10:11:52.093Z,8048
2017-06-23T10:13:01.039Z,8140
2017-06-23T10:14:10.257Z,6712
2017-06-23T10:15:19.151Z,6852
2017-06-23T10:16:28.450Z,7860
2017-06-23T10:17:37.344Z,8148
2017-06-23T10:18:46.236Z,8944
2017-06-23T10:19:55.458Z,7088
2017-06-23T10:21:04.689Z,7876
2017-06-23T10:22:13.967Z,7772
2017-06-23T10:23:23.190Z,7480
2017-06-23T10:24:32.410Z,7704
2017-06-23T10:25:41.308Z,7524
2017-06-23T10:26:50.202Z,8784
2017-06-23T10:27:59.669Z,8828
2017-06-23T10:29:08.568Z,8616
2017-06-23T10:30:17.468Z,8472
2017-06-23T10:31:26.362Z,8468
2017-06-23T10:32:35.584Z,9532
2017-06-23T10:33:44.585Z,7080
2017-06-23T10:34:53.482Z,8616
2017-06-23T10:36:02.705Z,8872
2017-06-23T10:37:12.251Z,8720
2017-06-23T10:38:21.147Z,9704
2017-06-23T10:39:30.622Z,9576
2017-06-23T10:40:40.165Z,9360
2017-06-23T10:41:49.059Z,8876
2017-06-23T10:42:58.278Z,7800
2017-06-23T10:44:07.826Z,6916
2017-06-23T10:45:16.717Z,5812
2017-06-23T10:46:25.715Z,5636
2017-06-23T10:47:34.611Z,5328
2017-06-23T10:48:43.832Z,5128
2017-06-23T10:49:52.727Z,5284
2017-06-23T10:51:01.623Z,6688
2017-06-23T10:52:10.519Z,8208
2017-06-23T10:53:19.744Z,7944
2017-06-23T10:54:28.642Z,6924
2017-06-23T10:55:38.187Z,6048
2017-06-23T10:56:48.053Z,6028
2017-06-23T10:57:56.947Z,6656
2017-06-23T10:59:06.814Z,9460
2017-06-23T11:00:16.036Z,8768
2017-06-23T11:01:24.943Z,7944
2017-06-23T11:02:33.989Z,10780
2017-06-23T11:03:42.885Z,8968
2017-06-23T11:04:52.109Z,9032
2017-06-23T11:06:01.010Z,10796
2017-06-23T11:07:10.229Z,11620
2017-06-23T11:08:19.278Z,13136
2017-06-23T11:09:28.503Z,13412
2017-06-23T11:10:37.400Z,11648
2017-06-23T11:11:46.621Z,11496
2017-06-23T11:12:55.516Z,10012
2017-06-23T11:14:04.661Z,9928
2017-06-23T11:15:13.554Z,9872
2017-06-23T11:16:22.451Z,9180
2017-06-23T11:17:31.672Z,7624
2017-06-23T11:18:40.568Z,8016
2017-06-23T11:19:49.662Z,8272
2017-06-23T11:20:58.889Z,9100
2017-06-23T11:22:08.110Z,10200
2017-06-23T11:23:17.008Z,10844
2017-06-23T11:24:25.909Z,10604
2017-06-23T11:25:35.180Z,11776
2017-06-23T11:26:44.402Z,11036
2017-06-23T11:27:53.629Z,12516
2017-06-23T11:29:02.530Z,13556
2017-06-23T11:30:11.428Z,12868
2017-06-23T11:31:21.228Z,13800
2017-06-23T11:32:30.454Z,14860
2017-06-23T11:33:39.353Z,14732
2017-06-23T11:34:49.239Z,14868
2017-06-23T11:35:58.136Z,14012
2017-06-23T11:37:07.509Z,13864
2017-06-23T11:38:16.733Z,14848
2017-06-23T11:39:26.278Z,15072
2017-06-23T11:40:35.175Z,14892
2017-06-23T11:41:44.073Z,14492
2017-06-23T11:42:53.018Z,14852
2017-06-23T11:44:01.915Z,14744
2017-06-23T11:45:10.815Z,15500
2017-06-23T11:46:19.714Z,15516
2017-06-23T11:47:28.615Z,15112
2017-06-23T11:48:38.138Z,14372
2017-06-23T11:49:47.036Z,15032
2017-06-23T11:50:55.935Z,14192
2017-06-23T11:52:04.837Z,14208
2017-06-23T11:53:14.059Z,14960
2017-06-23T11:54:23.256Z,13984
2017-06-23T11:55:32.159Z,12208
2017-06-23T11:56:41.056Z,10316
2017-06-23T11:57:49.957Z,9408
2017-06-23T11:58:58.854Z,9508
2017-06-23T12:00:08.456Z,10600
2017-06-23T12:01:17.351Z,11180
2017-06-23T12:02:26.255Z,13104
2017-06-23T12:03:35.153Z,12000
2017-06-23T12:04:44.375Z,13536
2017-06-23T12:05:53.845Z,15464
2017-06-23T12:07:03.061Z,11920
2017-06-23T12:08:12.285Z,11920
2017-06-23T12:09:21.185Z,11932
2017-06-23T12:10:30.408Z,13504
2017-06-23T12:11:39.358Z,22464
2017-06-23T12:12:48.255Z,25664
2017-06-23T12:13:57.153Z,39392
2017-06-23T12:15:06.053Z,36352
2017-06-23T12:16:14.951Z,32608
2017-06-23T12:17:24.327Z,37792
2017-06-23T12:18:33.234Z,29920
2017-06-23T12:19:42.465Z,10896
2017-06-23T12:20:51.364Z,10444
2017-06-23T12:22:00.265Z,11128
2017-06-23T12:23:09.837Z,11212
2017-06-23T12:24:19.094Z,17312
2017-06-23T12:25:27.997Z,36704
2017-06-23T12:26:36.902Z,27360
2017-06-23T12:27:45.802Z,20576
2017-06-23T12:28:54.904Z,21600
2017-06-23T12:30:04.136Z,30272
2017-06-23T12:31:13.040Z,25024
2017-06-23T12:32:21.939Z,21792
2017-06-23T12:33:30.839Z,13700
2017-06-23T12:34:39.889Z,14796
2017-06-23T12:35:49.131Z,17408
2017-06-23T12:36:58.029Z,11672
2017-06-23T12:38:06.938Z,12928
2017-06-23T12:39:15.841Z,8356
2017-06-23T12:40:24.909Z,8372
2017-06-23T12:41:34.480Z,11504
2017-06-23T12:42:43.714Z,10248
2017-06-23T12:43:52.660Z,11308
2017-06-23T12:45:01.886Z,11148
2017-06-23T12:46:10.937Z,13268
2017-06-23T12:47:19.840Z,16992
2017-06-23T12:48:29.067Z,12348
2017-06-23T12:49:38.291Z,13280
2017-06-23T12:50:47.193Z,12920
2017-06-23T12:51:57.216Z,16512
2017-06-23T12:53:06.447Z,7820
2017-06-23T12:54:15.351Z,7164
2017-06-23T12:55:24.250Z,5216
2017-06-23T12:56:33.152Z,5852
2017-06-23T12:57:42.211Z,4340
2017-06-23T12:58:51.455Z,2728
2017-06-23T13:00:00.679Z,2588
2017-06-23T13:01:09.578Z,3640
2017-06-23T13:02:18.806Z,3996
2017-06-23T13:03:27.850Z,5384
2017-06-23T13:04:36.748Z,6784
2017-06-23T13:05:45.647Z,6616
2017-06-23T13:06:54.879Z,5452
2017-06-23T13:08:04.427Z,5888
2017-06-23T13:09:13.646Z,6484
2017-06-23T13:10:22.543Z,8324
2017-06-23T13:11:31.443Z,8984
2017-06-23T13:12:40.349Z,9596
2017-06-23T13:13:49.246Z,16768
2017-06-23T13:14:58.293Z,13088
2017-06-23T13:16:07.513Z,11428
2017-06-23T13:17:16.416Z,11028
2017-06-23T13:18:25.310Z,10316
2017-06-23T13:19:34.205Z,13680
2017-06-23T13:20:43.402Z,22944
2017-06-23T13:21:52.306Z,23200
2017-06-23T13:23:01.537Z,18880
2017-06-23T13:24:10.436Z,13608
2017-06-23T13:25:19.334Z,14488
2017-06-23T13:26:28.284Z,33856
2017-06-23T13:27:37.503Z,18176
2017-06-23T13:28:46.748Z,19872
2017-06-23T13:29:55.654Z,14576
2017-06-23T13:31:04.882Z,14844
2017-06-23T13:32:13.935Z,32704
2017-06-23T13:33:22.831Z,40672
2017-06-23T13:34:32.054Z,65056
2017-06-23T13:35:41.275Z,35296
2017-06-23T13:36:50.823Z,24704
2017-06-23T13:37:59.871Z,25344
2017-06-23T13:39:09.421Z,9800
2017-06-23T13:40:18.645Z,7564
2017-06-23T13:41:27.550Z,10860
2017-06-23T13:42:36.784Z,10052
2017-06-23T13:43:45.840Z,10792
2017-06-23T13:44:55.068Z,9512
2017-06-23T13:46:03.966Z,9492
2017-06-23T13:47:12.867Z,8760
2017-06-23T13:48:21.768Z,7972
2017-06-23T13:49:30.820Z,7736
2017-06-23T13:50:40.045Z,7436
2017-06-23T13:51:49.274Z,6696
2017-06-23T13:52:58.173Z,6144
2017-06-23T13:54:07.393Z,5996
2017-06-23T13:55:16.713Z,5952
2017-06-23T13:56:25.614Z,6220
2017-06-23T13:57:34.516Z,7056
2017-06-23T13:58:43.420Z,7568
2017-06-23T13:59:52.642Z,7936
2017-06-23T14:01:01.698Z,7524
2017-06-23T14:02:10.598Z,6520
2017-06-23T14:03:19.497Z,6092
2017-06-23T14:04:29.058Z,6088
2017-06-23T14:05:38.607Z,5636
2017-06-23T14:06:47.984Z,6140
2017-06-23T14:07:57.528Z,6264
2017-06-23T14:09:06.758Z,7132
2017-06-23T14:10:16.003Z,8804
2017-06-23T14:11:24.908Z,8624
2017-06-23T14:12:33.954Z,8732
2017-06-23T14:13:42.852Z,8144
2017-06-23T14:14:51.752Z,8012
2017-06-23T14:16:00.649Z,8692
2017-06-23T14:17:09.547Z,9276
2017-06-23T14:18:19.075Z,11712
2017-06-23T14:19:27.968Z,9924
2017-06-23T14:20:36.864Z,8996
2017-06-23T14:21:45.770Z,10160
2017-06-23T14:22:54.672Z,10872
2017-06-23T14:24:03.873Z,11400
2017-06-23T14:25:12.769Z,10552
2017-06-23T14:26:21.675Z,7720
2017-06-23T14:27:30.577Z,6548
2017-06-23T14:28:39.796Z,6824
2017-06-23T14:29:49.020Z,7036
2017-06-23T14:30:57.917Z,9940
2017-06-23T14:32:07.138Z,11140
2017-06-23T14:33:16.038Z,8724
2017-06-23T14:34:24.936Z,7148
2017-06-23T14:35:33.988Z,8184
2017-06-23T14:36:42.884Z,11168
2017-06-23T14:37:52.104Z,17888
2017-06-23T14:39:01.646Z,14504
2017-06-23T14:40:10.549Z,12316
2017-06-23T14:41:19.705Z,10156
2017-06-23T14:42:28.926Z,14312
2017-06-23T14:43:37.822Z,12860
2017-06-23T14:44:46.731Z,17152
2017-06-23T14:45:55.630Z,45248
2017-06-23T14:47:05.230Z,12588
2017-06-23T14:48:14.128Z,7900
2017-06-23T14:49:23.356Z,7568
2017-06-23T14:50:32.253Z,8220
2017-06-23T14:51:41.152Z,8580
2017-06-23T14:52:50.251Z,9088
2017-06-23T14:53:59.150Z,8616
2017-06-23T14:55:08.384Z,8448
2017-06-23T14:56:17.607Z,8776
2017-06-23T14:57:26.503Z,7664
2017-06-23T14:58:35.553Z,6808
2017-06-23T14:59:44.455Z,8260
2017-06-23T15:00:53.357Z,8404
2017-06-23T15:02:02.577Z,7892
2017-06-23T15:03:11.802Z,8056
2017-06-23T15:04:20.801Z,7264
2017-06-23T15:05:30.021Z,6024
2017-06-23T15:06:38.944Z,5624
2017-06-23T15:07:48.165Z,6884
2017-06-23T15:08:57.065Z,8412
2017-06-23T15:10:06.059Z,9356
2017-06-23T15:11:14.963Z,9432
2017-06-23T15:12:23.863Z,6560
2017-06-23T15:13:32.769Z,4820
2017-06-23T15:14:41.989Z,3428
2017-06-23T15:15:51.361Z,2812
2017-06-23T15:17:00.269Z,2572
2017-06-23T15:18:09.170Z,2372
2017-06-23T15:19:18.065Z,2012
2017-06-23T15:20:27.287Z,1856
2017-06-23T15:21:36.335Z,1956
2017-06-23T15:22:45.235Z,2332
2017-06-23T15:23:54.137Z,2980
2017-06-23T15:25:03.037Z,3360
2017-06-23T15:26:11.936Z,3448
2017-06-23T15:27:21.203Z,3244
2017-06-23T15:28:30.427Z,2952
2017-06-23T15:29:39.324Z,2948
2017-06-23T15:30:48.220Z,2892
2017-06-23T15:31:57.114Z,2700
2017-06-23T15:33:06.580Z,2716
2017-06-23T15:34:15.796Z,3200
2017-06-23T15:35:24.694Z,3844
2017-06-23T15:36:33.921Z,4596
2017-06-23T15:37:42.840Z,5248
2017-06-23T15:38:51.885Z,6264